N1972A KALB-KLGA
Flight info
| Callsign | N1972A |
|---|---|
| Flight time | 0h 37m |
| Altitude | 5000 |
| Route | ALB IGN LGA |
| Aircraft | B190/M-S/NC |
Departure
| Time | 2026-04-20 18:46 |
|---|---|
| Airport | Albany International Airport (KALB) |
Arrival
| Time | 2026-04-20 19:24 |
|---|---|
| Airport | LaGuardia Airport (KLGA) |
| Time | Latitude | Longitude | Altitude | Speed | Heading |
|---|---|---|---|---|---|
| 2026-04-20 18:24 | 42.73859 | -73.80704 | 290 ft | 0 kts | 270° |
| 2026-04-20 18:33 | 42.73859 | -73.80699 | 290 ft | 2 kts | 270° |
| 2026-04-20 18:33 | 42.73859 | -73.80678 | 290 ft | 3 kts | 270° |
| 2026-04-20 18:34 | 42.73856 | -73.80652 | 290 ft | 3 kts | 295° |
| 2026-04-20 18:34 | 42.73870 | -73.80657 | 290 ft | 0 kts | 6° |
| 2026-04-20 18:35 | 42.73883 | -73.80655 | 290 ft | 11 kts | 6° |
| 2026-04-20 18:35 | 42.73960 | -73.80646 | 290 ft | 9 kts | 1° |
| 2026-04-20 18:35 | 42.74032 | -73.80647 | 290 ft | 10 kts | 359° |
| 2026-04-20 18:36 | 42.74102 | -73.80650 | 290 ft | 11 kts | 359° |
| 2026-04-20 18:36 | 42.74171 | -73.80652 | 290 ft | 11 kts | 359° |
| 2026-04-20 18:36 | 42.74241 | -73.80654 | 290 ft | 9 kts | 4° |
| 2026-04-20 18:36 | 42.74302 | -73.80608 | 290 ft | 10 kts | 360° |
| 2026-04-20 18:37 | 42.74372 | -73.80612 | 290 ft | 11 kts | 358° |
| 2026-04-20 18:37 | 42.74442 | -73.80615 | 290 ft | 10 kts | 358° |
| 2026-04-20 18:37 | 42.74513 | -73.80617 | 290 ft | 9 kts | 359° |
| 2026-04-20 18:37 | 42.74584 | -73.80619 | 290 ft | 10 kts | 359° |
| 2026-04-20 18:38 | 42.74655 | -73.80621 | 290 ft | 11 kts | 359° |
| 2026-04-20 18:38 | 42.74724 | -73.80624 | 290 ft | 11 kts | 358° |
| 2026-04-20 18:38 | 42.74786 | -73.80598 | 290 ft | 9 kts | 67° |
| 2026-04-20 18:38 | 42.74795 | -73.80497 | 290 ft | 13 kts | 88° |
| 2026-04-20 18:39 | 42.74797 | -73.80387 | 290 ft | 10 kts | 88° |
| 2026-04-20 18:39 | 42.74799 | -73.80295 | 290 ft | 12 kts | 88° |
| 2026-04-20 18:39 | 42.74801 | -73.80198 | 290 ft | 9 kts | 88° |
| 2026-04-20 18:39 | 42.74804 | -73.80096 | 290 ft | 13 kts | 88° |
| 2026-04-20 18:40 | 42.74807 | -73.79982 | 290 ft | 10 kts | 88° |
| 2026-04-20 18:40 | 42.74809 | -73.79891 | 290 ft | 11 kts | 88° |
| 2026-04-20 18:40 | 42.74812 | -73.79774 | 290 ft | 12 kts | 88° |
| 2026-04-20 18:40 | 42.74814 | -73.79676 | 290 ft | 9 kts | 88° |
| 2026-04-20 18:41 | 42.74816 | -73.79578 | 290 ft | 10 kts | 88° |
| 2026-04-20 18:41 | 42.74819 | -73.79487 | 290 ft | 10 kts | 87° |
| 2026-04-20 18:41 | 42.74822 | -73.79388 | 290 ft | 9 kts | 88° |
| 2026-04-20 18:41 | 42.74824 | -73.79292 | 290 ft | 11 kts | 88° |
| 2026-04-20 18:42 | 42.74827 | -73.79200 | 290 ft | 10 kts | 88° |
| 2026-04-20 18:42 | 42.74830 | -73.79088 | 290 ft | 13 kts | 88° |
| 2026-04-20 18:42 | 42.74832 | -73.78983 | 290 ft | 9 kts | 88° |
| 2026-04-20 18:42 | 42.74835 | -73.78888 | 290 ft | 11 kts | 88° |
| 2026-04-20 18:43 | 42.74837 | -73.78795 | 290 ft | 9 kts | 88° |
| 2026-04-20 18:43 | 42.74839 | -73.78724 | 290 ft | 4 kts | 88° |
| 2026-04-20 18:43 | 42.74840 | -73.78693 | 290 ft | 5 kts | 88° |
| 2026-04-20 18:43 | 42.74841 | -73.78638 | 290 ft | 6 kts | 88° |
| 2026-04-20 18:44 | 42.74855 | -73.78587 | 290 ft | 6 kts | 31° |
| 2026-04-20 18:44 | 42.74897 | -73.78583 | 290 ft | 3 kts | 358° |
| 2026-04-20 18:44 | 42.74901 | -73.78583 | 290 ft | 0 kts | 358° |
| 2026-04-20 18:44 | 42.74906 | -73.78583 | 290 ft | 4 kts | 358° |
| 2026-04-20 18:45 | 42.74962 | -73.78595 | 290 ft | 10 kts | 324° |
| 2026-04-20 18:45 | 42.74975 | -73.78654 | 290 ft | 5 kts | 268° |
| 2026-04-20 18:45 | 42.74974 | -73.78696 | 290 ft | 4 kts | 268° |
| 2026-04-20 18:45 | 42.74968 | -73.79026 | 290 ft | 82 kts | 268° |
| 2026-04-20 18:46 | 42.74943 | -73.80057 | 381 ft | 122 kts | 268° |
| 2026-04-20 18:46 | 42.74919 | -73.81243 | 820 ft | 131 kts | 270° |
| 2026-04-20 18:46 | 42.74906 | -73.82539 | 1285 ft | 145 kts | 270° |
| 2026-04-20 18:46 | 42.74853 | -73.83955 | 1744 ft | 156 kts | 265° |
| 2026-04-20 18:47 | 42.74363 | -73.85318 | 2164 ft | 171 kts | 232° |
| 2026-04-20 18:47 | 42.73304 | -73.86129 | 2604 ft | 184 kts | 199° |
| 2026-04-20 18:47 | 42.71994 | -73.86092 | 3056 ft | 194 kts | 173° |
| 2026-04-20 18:47 | 42.70683 | -73.85606 | 3507 ft | 198 kts | 166° |
| 2026-04-20 18:48 | 42.69381 | -73.85006 | 3931 ft | 198 kts | 164° |
| 2026-04-20 18:48 | 42.68083 | -73.84378 | 4321 ft | 201 kts | 163° |
| 2026-04-20 18:48 | 42.66715 | -73.83715 | 4430 ft | 217 kts | 163° |
| 2026-04-20 18:48 | 42.65246 | -73.83011 | 4456 ft | 231 kts | 163° |
| 2026-04-20 18:49 | 42.63706 | -73.82278 | 4466 ft | 237 kts | 163° |
| 2026-04-20 18:49 | 42.62151 | -73.81539 | 4470 ft | 238 kts | 163° |
| 2026-04-20 18:49 | 42.60588 | -73.80806 | 4457 ft | 238 kts | 166° |
| 2026-04-20 18:49 | 42.58976 | -73.80467 | 4457 ft | 234 kts | 182° |
| 2026-04-20 18:50 | 42.57369 | -73.80654 | 4461 ft | 231 kts | 192° |
| 2026-04-20 18:50 | 42.55796 | -73.81063 | 4456 ft | 231 kts | 194° |
| 2026-04-20 18:50 | 42.54213 | -73.81440 | 4451 ft | 232 kts | 192° |
| 2026-04-20 18:50 | 42.52606 | -73.81662 | 4445 ft | 233 kts | 187° |
| 2026-04-20 18:51 | 42.50985 | -73.81728 | 4443 ft | 234 kts | 184° |
| 2026-04-20 18:51 | 42.49357 | -73.81701 | 4442 ft | 235 kts | 182° |
| 2026-04-20 18:51 | 42.47728 | -73.81650 | 4442 ft | 234 kts | 182° |
| 2026-04-20 18:51 | 42.46102 | -73.81621 | 4442 ft | 234 kts | 183° |
| 2026-04-20 18:52 | 42.44478 | -73.81636 | 4442 ft | 233 kts | 184° |
| 2026-04-20 18:52 | 42.42868 | -73.81701 | 4486 ft | 231 kts | 185° |
| 2026-04-20 18:52 | 42.41266 | -73.81766 | 4491 ft | 232 kts | 180° |
| 2026-04-20 18:52 | 42.39688 | -73.81267 | 4511 ft | 235 kts | 164° |
| 2026-04-20 18:53 | 42.38167 | -73.80435 | 4504 ft | 237 kts | 158° |
| 2026-04-20 18:53 | 42.36690 | -73.79433 | 4503 ft | 239 kts | 155° |
| 2026-04-20 18:53 | 42.35232 | -73.78365 | 4502 ft | 240 kts | 154° |
| 2026-04-20 18:53 | 42.33752 | -73.77329 | 4503 ft | 240 kts | 157° |
| 2026-04-20 18:54 | 42.32228 | -73.76431 | 4503 ft | 239 kts | 162° |
| 2026-04-20 18:54 | 42.30651 | -73.75758 | 4503 ft | 238 kts | 169° |
| 2026-04-20 18:54 | 42.29033 | -73.75375 | 4503 ft | 236 kts | 177° |
| 2026-04-20 18:54 | 42.27403 | -73.75313 | 4504 ft | 234 kts | 186° |
| 2026-04-20 18:55 | 42.25799 | -73.75558 | 4503 ft | 232 kts | 193° |
| 2026-04-20 18:55 | 42.24241 | -73.76059 | 4502 ft | 230 kts | 199° |
| 2026-04-20 18:55 | 42.22728 | -73.76741 | 4500 ft | 229 kts | 204° |
| 2026-04-20 18:55 | 42.21246 | -73.77517 | 4500 ft | 229 kts | 205° |
| 2026-04-20 18:56 | 42.19767 | -73.78301 | 4497 ft | 229 kts | 204° |
| 2026-04-20 18:56 | 42.18264 | -73.79015 | 4493 ft | 230 kts | 201° |
| 2026-04-20 18:56 | 42.16730 | -73.79590 | 4479 ft | 231 kts | 197° |
| 2026-04-20 18:56 | 42.15143 | -73.79982 | 4476 ft | 232 kts | 191° |
| 2026-04-20 18:57 | 42.13534 | -73.80164 | 4476 ft | 233 kts | 186° |
| 2026-04-20 18:57 | 42.11914 | -73.80152 | 4476 ft | 234 kts | 181° |
| 2026-04-20 18:57 | 42.10294 | -73.79990 | 4476 ft | 235 kts | 178° |
| 2026-04-20 18:57 | 42.08674 | -73.79741 | 4474 ft | 235 kts | 176° |
| 2026-04-20 18:58 | 42.07057 | -73.79479 | 4473 ft | 234 kts | 177° |
| 2026-04-20 18:58 | 42.05441 | -73.79270 | 4472 ft | 233 kts | 179° |
| 2026-04-20 18:58 | 42.03826 | -73.79163 | 4472 ft | 232 kts | 182° |
| 2026-04-20 18:58 | 42.02218 | -73.79184 | 4471 ft | 231 kts | 185° |
| 2026-04-20 18:59 | 42.00620 | -73.79334 | 4470 ft | 230 kts | 188° |
| 2026-04-20 18:59 | 41.99032 | -73.79584 | 4462 ft | 230 kts | 191° |
| 2026-04-20 18:59 | 41.97454 | -73.79887 | 4461 ft | 229 kts | 191° |
| 2026-04-20 18:59 | 41.95879 | -73.80187 | 4461 ft | 229 kts | 191° |
| 2026-04-20 19:00 | 41.94301 | -73.80438 | 4461 ft | 229 kts | 189° |
| 2026-04-20 19:00 | 41.92712 | -73.80613 | 4461 ft | 230 kts | 187° |
| 2026-04-20 19:00 | 41.91117 | -73.80707 | 4465 ft | 230 kts | 185° |
| 2026-04-20 19:00 | 41.89518 | -73.80740 | 4466 ft | 230 kts | 184° |
| 2026-04-20 19:01 | 41.87917 | -73.80753 | 4466 ft | 231 kts | 184° |
| 2026-04-20 19:01 | 41.86316 | -73.80787 | 4464 ft | 230 kts | 185° |
| 2026-04-20 19:01 | 41.84719 | -73.80869 | 4461 ft | 230 kts | 186° |
| 2026-04-20 19:01 | 41.83127 | -73.81002 | 4457 ft | 229 kts | 187° |
| 2026-04-20 19:02 | 41.81539 | -73.81171 | 4439 ft | 229 kts | 187° |
| 2026-04-20 19:02 | 41.79955 | -73.81332 | 4435 ft | 229 kts | 186° |
| 2026-04-20 19:02 | 41.78368 | -73.81453 | 4434 ft | 228 kts | 185° |
| 2026-04-20 19:02 | 41.76785 | -73.81534 | 4434 ft | 228 kts | 184° |
| 2026-04-20 19:03 | 41.75201 | -73.81609 | 4434 ft | 228 kts | 185° |
| 2026-04-20 19:03 | 41.73629 | -73.81708 | 4485 ft | 226 kts | 186° |
| 2026-04-20 19:03 | 41.72064 | -73.81833 | 4515 ft | 226 kts | 187° |
| 2026-04-20 19:03 | 41.70490 | -73.81961 | 4523 ft | 227 kts | 186° |
| 2026-04-20 19:04 | 41.68907 | -73.82062 | 4526 ft | 229 kts | 186° |
| 2026-04-20 19:04 | 41.67321 | -73.82176 | 4528 ft | 229 kts | 187° |
| 2026-04-20 19:04 | 41.65727 | -73.82245 | 4532 ft | 230 kts | 184° |
| 2026-04-20 19:04 | 41.64125 | -73.82319 | 4545 ft | 231 kts | 187° |
| 2026-04-20 19:05 | 41.62527 | -73.82467 | 4548 ft | 231 kts | 188° |
| 2026-04-20 19:05 | 41.60925 | -73.82643 | 4548 ft | 232 kts | 188° |
| 2026-04-20 19:05 | 41.59315 | -73.82766 | 4548 ft | 233 kts | 185° |
| 2026-04-20 19:05 | 41.57696 | -73.82807 | 4548 ft | 233 kts | 185° |
| 2026-04-20 19:06 | 41.56074 | -73.82894 | 4575 ft | 234 kts | 187° |
| 2026-04-20 19:06 | 41.54452 | -73.83038 | 4568 ft | 236 kts | 188° |
| 2026-04-20 19:06 | 41.52804 | -73.83196 | 4514 ft | 239 kts | 187° |
| 2026-04-20 19:06 | 41.51146 | -73.83343 | 4504 ft | 239 kts | 188° |
| 2026-04-20 19:07 | 41.49482 | -73.83343 | 4503 ft | 241 kts | 180° |
| 2026-04-20 19:07 | 41.47813 | -73.83114 | 4503 ft | 242 kts | 175° |
| 2026-04-20 19:07 | 41.46146 | -73.82780 | 4504 ft | 243 kts | 174° |
| 2026-04-20 19:07 | 41.44478 | -73.82411 | 4486 ft | 243 kts | 174° |
| 2026-04-20 19:08 | 41.42811 | -73.82069 | 4481 ft | 243 kts | 175° |
| 2026-04-20 19:08 | 41.39466 | -73.81665 | 4480 ft | 241 kts | 181° |
| 2026-04-20 19:08 | 41.37800 | -73.81666 | 4491 ft | 240 kts | 185° |
| 2026-04-20 19:09 | 41.36136 | -73.81807 | 4494 ft | 240 kts | 189° |
| 2026-04-20 19:09 | 41.34482 | -73.82065 | 4495 ft | 240 kts | 192° |
| 2026-04-20 19:09 | 41.32835 | -73.82411 | 4493 ft | 240 kts | 193° |
| 2026-04-20 19:09 | 41.31194 | -73.82807 | 4494 ft | 240 kts | 194° |
| 2026-04-20 19:10 | 41.29573 | -73.83213 | 4493 ft | 242 kts | 194° |
| 2026-04-20 19:10 | 41.27891 | -73.83602 | 4488 ft | 243 kts | 193° |
| 2026-04-20 19:10 | 41.26214 | -73.83921 | 4484 ft | 244 kts | 191° |
| 2026-04-20 19:10 | 41.24531 | -73.84153 | 4482 ft | 245 kts | 188° |
| 2026-04-20 19:11 | 41.22820 | -73.84292 | 4480 ft | 246 kts | 186° |
| 2026-04-20 19:11 | 41.21108 | -73.84346 | 4481 ft | 246 kts | 184° |
| 2026-04-20 19:11 | 41.19399 | -73.84340 | 4481 ft | 245 kts | 182° |
| 2026-04-20 19:11 | 41.17729 | -73.84300 | 4478 ft | 237 kts | 182° |
| 2026-04-20 19:12 | 41.16109 | -73.84256 | 4479 ft | 230 kts | 182° |
| 2026-04-20 19:12 | 41.14535 | -73.84237 | 4480 ft | 224 kts | 183° |
| 2026-04-20 19:12 | 41.12996 | -73.84262 | 4481 ft | 220 kts | 185° |
| 2026-04-20 19:12 | 41.11477 | -73.84335 | 4473 ft | 218 kts | 186° |
| 2026-04-20 19:13 | 41.09974 | -73.84453 | 4471 ft | 216 kts | 188° |
| 2026-04-20 19:13 | 41.08486 | -73.84607 | 4471 ft | 214 kts | 189° |
| 2026-04-20 19:13 | 41.06981 | -73.84784 | 4263 ft | 223 kts | 189° |
| 2026-04-20 19:13 | 41.05415 | -73.84970 | 4021 ft | 228 kts | 189° |
| 2026-04-20 19:14 | 41.03835 | -73.85137 | 3774 ft | 227 kts | 188° |
| 2026-04-20 19:14 | 41.02280 | -73.85272 | 3524 ft | 223 kts | 187° |
| 2026-04-20 19:14 | 41.00750 | -73.85381 | 3274 ft | 219 kts | 186° |
| 2026-04-20 19:14 | 40.99254 | -73.85471 | 3094 ft | 212 kts | 186° |
| 2026-04-20 19:15 | 40.97814 | -73.85548 | 2992 ft | 203 kts | 186° |
| 2026-04-20 19:15 | 40.96435 | -73.85618 | 2965 ft | 194 kts | 186° |
| 2026-04-20 19:15 | 40.95107 | -73.85694 | 2800 ft | 194 kts | 186° |
| 2026-04-20 19:15 | 40.93753 | -73.85801 | 2567 ft | 196 kts | 186° |
| 2026-04-20 19:16 | 40.92394 | -73.85909 | 2343 ft | 197 kts | 186° |
| 2026-04-20 19:16 | 40.91026 | -73.86002 | 2119 ft | 196 kts | 182° |
| 2026-04-20 19:16 | 40.89653 | -73.86143 | 1898 ft | 199 kts | 186° |
| 2026-04-20 19:16 | 40.88274 | -73.86197 | 1683 ft | 199 kts | 184° |
| 2026-04-20 19:17 | 40.86899 | -73.86228 | 1543 ft | 196 kts | 185° |
| 2026-04-20 19:17 | 40.85556 | -73.86125 | 1481 ft | 188 kts | 168° |
| 2026-04-20 19:17 | 40.84537 | -73.85281 | 1487 ft | 166 kts | 134° |
| 2026-04-20 19:17 | 40.83856 | -73.84106 | 1511 ft | 161 kts | 124° |
| 2026-04-20 19:18 | 40.83232 | -73.82867 | 1508 ft | 163 kts | 122° |
| 2026-04-20 19:18 | 40.82667 | -73.81622 | 1490 ft | 157 kts | 123° |
| 2026-04-20 19:18 | 40.82139 | -73.80377 | 1421 ft | 154 kts | 122° |
| 2026-04-20 19:18 | 40.81623 | -73.79163 | 1400 ft | 150 kts | 122° |
| 2026-04-20 19:19 | 40.81116 | -73.77985 | 1392 ft | 147 kts | 122° |
| 2026-04-20 19:19 | 40.80616 | -73.76833 | 1409 ft | 143 kts | 122° |
| 2026-04-20 19:19 | 40.80127 | -73.75712 | 1480 ft | 140 kts | 122° |
| 2026-04-20 19:19 | 40.79619 | -73.74582 | 1352 ft | 149 kts | 127° |
| 2026-04-20 19:20 | 40.78783 | -73.73800 | 1153 ft | 151 kts | 165° |
| 2026-04-20 19:20 | 40.77764 | -73.73896 | 1021 ft | 150 kts | 205° |
| 2026-04-20 19:20 | 40.76885 | -73.74506 | 1179 ft | 137 kts | 216° |
| 2026-04-20 19:20 | 40.76057 | -73.75187 | 1130 ft | 145 kts | 218° |
| 2026-04-20 19:21 | 40.75202 | -73.75911 | 1101 ft | 146 kts | 218° |
| 2026-04-20 19:21 | 40.74354 | -73.76632 | 1096 ft | 146 kts | 218° |
| 2026-04-20 19:21 | 40.73532 | -73.77393 | 1047 ft | 145 kts | 230° |
| 2026-04-20 19:21 | 40.73017 | -73.78588 | 897 ft | 159 kts | 255° |
| 2026-04-20 19:22 | 40.73218 | -73.80005 | 813 ft | 166 kts | 303° |
| 2026-04-20 19:22 | 40.74125 | -73.81009 | 643 ft | 173 kts | 329° |
| 2026-04-20 19:22 | 40.75071 | -73.81950 | 684 ft | 173 kts | 321° |
| 2026-04-20 19:22 | 40.75912 | -73.83106 | 563 ft | 177 kts | 308° |
| 2026-04-20 19:23 | 40.76593 | -73.84417 | 331 ft | 172 kts | 301° |
| 2026-04-20 19:23 | 40.77189 | -73.85684 | 103 ft | 144 kts | 302° |
| 2026-04-20 19:23 | 40.77637 | -73.86610 | 27 ft | 92 kts | 301° |
| 2026-04-20 19:23 | 40.77912 | -73.87186 | 27 ft | 56 kts | 302° |
| 2026-04-20 19:24 | 40.78031 | -73.87435 | 27 ft | 17 kts | 302° |
| 2026-04-20 19:24 | 40.78062 | -73.87522 | 27 ft | 6 kts | 270° |
| 2026-04-20 19:24 | 40.78051 | -73.87574 | 27 ft | 7 kts | 238° |
| 2026-04-20 19:24 | 40.78039 | -73.87596 | 27 ft | 0 kts | 233° |
| 2026-04-20 19:25 | 40.78007 | -73.87646 | 27 ft | 11 kts | 222° |
| 2026-04-20 19:25 | 40.77956 | -73.87696 | 27 ft | 10 kts | 213° |
| 2026-04-20 19:26 | 40.77896 | -73.87747 | 27 ft | 9 kts | 211° |
| 2026-04-20 19:26 | 40.77835 | -73.87796 | 27 ft | 10 kts | 212° |
| 2026-04-20 19:26 | 40.77774 | -73.87846 | 27 ft | 11 kts | 212° |
| 2026-04-20 19:26 | 40.77716 | -73.87895 | 27 ft | 11 kts | 212° |
| 2026-04-20 19:27 | 40.77656 | -73.87943 | 27 ft | 10 kts | 212° |
| 2026-04-20 19:27 | 40.77596 | -73.87993 | 27 ft | 10 kts | 212° |
| 2026-04-20 19:27 | 40.77536 | -73.88043 | 27 ft | 10 kts | 213° |
| 2026-04-20 19:27 | 40.77477 | -73.88094 | 27 ft | 11 kts | 213° |
| 2026-04-20 19:28 | 40.77420 | -73.88144 | 27 ft | 11 kts | 213° |
| 2026-04-20 19:28 | 40.77362 | -73.88194 | 27 ft | 10 kts | 213° |
| 2026-04-20 19:28 | 40.77300 | -73.88247 | 27 ft | 9 kts | 213° |
| 2026-04-20 19:28 | 40.77258 | -73.88313 | 27 ft | 9 kts | 258° |
| 2026-04-20 19:29 | 40.77278 | -73.88385 | 27 ft | 10 kts | 346° |
| 2026-04-20 19:29 | 40.77317 | -73.88389 | 27 ft | 2 kts | 359° |
| 2026-04-20 19:29 | 40.77322 | -73.88389 | 27 ft | 3 kts | 2° |
| 2026-04-20 19:29 | 40.77337 | -73.88388 | 27 ft | 0 kts | 1° |